Time,TemperatureF,DewpointF,PressureIn,WindDirection,WindDirectionDegrees,WindSpeedMPH,WindSpeedGustMPH,Humidity,HourlyPrecipIn,Conditions,Clouds,dailyrainin,SoftwareType,DateUTC
2013-05-06 00:01:00,53.1,47.1,30.05,NW,313,3.0,3.0,80,0.00,,---,0.00,VWS V14.00,2013-05-06 05:01:00,
2013-05-06 00:06:00,52.9,46.6,30.05,NW,312,6.0,7.0,79,0.00,,---,0.00,VWS V14.00,2013-05-06 05:06:00,
2013-05-06 00:11:00,52.9,46.9,30.05,NW,312,5.0,7.0,80,0.00,,---,0.00,VWS V14.00,2013-05-06 05:11:00,
2013-05-06 00:16:00,52.9,46.9,30.04,NW,312,3.0,6.0,80,0.00,,---,0.00,VWS V14.00,2013-05-06 05:16:00,
2013-05-06 00:21:00,52.9,46.9,30.04,NW,312,1.0,4.0,80,0.00,,---,0.00,VWS V14.00,2013-05-06 05:21:00,
2013-05-06 00:26:00,53.1,47.1,30.04,NW,313,3.0,8.0,80,0.00,,---,0.00,VWS V14.00,2013-05-06 05:26:00,
2013-05-06 00:31:00,53.1,47.1,30.04,NW,312,7.0,7.0,80,0.00,,---,0.00,VWS V14.00,2013-05-06 05:31:00,
2013-05-06 00:36:00,52.9,46.9,30.04,NW,312,5.0,6.0,80,0.00,,---,0.00,VWS V14.00,2013-05-06 05:36:00,
2013-05-06 00:41:00,52.9,46.9,30.04,NW,312,7.0,7.0,80,0.00,,---,0.00,VWS V14.00,2013-05-06 05:41:00,
2013-05-06 00:46:00,52.9,46.9,30.04,NW,319,6.0,6.0,80,0.00,,---,0.00,VWS V14.00,2013-05-06 05:46:00,
2013-05-06 00:51:00,52.9,46.9,30.04,NW,318,3.0,7.0,80,0.00,,---,0.00,VWS V14.00,2013-05-06 05:51:00,
2013-05-06 00:56:00,52.8,46.8,30.04,NW,318,2.0,5.0,80,0.00,,---,0.00,VWS V14.00,2013-05-06 05:56:00,
2013-05-06 01:01:00,52.6,46.9,30.04,NW,315,2.0,5.0,81,0.00,,---,0.00,VWS V14.00,2013-05-06 06:01:00,
2013-05-06 01:06:00,52.6,46.9,30.03,NW,315,0.0,2.0,81,0.00,,---,0.00,VWS V14.00,2013-05-06 06:06:00,
2013-05-06 01:11:00,52.5,46.8,30.03,NW,313,7.0,12.0,81,0.00,,---,0.00,VWS V14.00,2013-05-06 06:11:00,
2013-05-06 01:16:00,52.6,46.9,30.03,NW,317,6.0,11.0,81,0.00,,---,0.00,VWS V14.00,2013-05-06 06:16:00,
2013-05-06 01:21:00,52.6,47.3,30.03,NW,319,9.0,10.0,82,0.00,,---,0.00,VWS V14.00,2013-05-06 06:21:00,
2013-05-06 01:26:00,52.6,46.9,30.02,NW,317,11.0,11.0,81,0.00,,---,0.00,VWS V14.00,2013-05-06 06:26:00,
2013-05-06 01:31:00,52.6,46.9,30.02,NW,317,11.0,11.0,81,0.00,,---,0.00,VWS V14.00,2013-05-06 06:31:00,
2013-05-06 01:36:00,52.5,46.8,30.02,NNW,329,10.0,14.0,81,0.00,,---,0.00,VWS V14.00,2013-05-06 06:36:00,
2013-05-06 01:41:00,52.5,47.2,30.02,NW,319,12.0,12.0,82,0.00,,---,0.00,VWS V14.00,2013-05-06 06:41:00,
2013-05-06 01:46:00,52.5,47.2,30.02,NW,319,6.0,8.0,82,0.00,,---,0.00,VWS V14.00,2013-05-06 06:46:00,
2013-05-06 01:51:00,52.3,47.0,30.01,NW,317,12.0,12.0,82,0.00,,---,0.00,VWS V14.00,2013-05-06 06:51:00,
2013-05-06 01:56:00,52.2,46.9,30.01,NW,310,6.0,7.0,82,0.00,,---,0.00,VWS V14.00,2013-05-06 06:56:00,
2013-05-06 02:01:00,52.0,46.7,30.01,NW,317,12.0,13.0,82,0.00,,---,0.00,VWS V14.00,2013-05-06 07:01:00,
2013-05-06 02:06:00,51.9,46.6,30.00,NW,315,9.0,11.0,82,0.00,,---,0.00,VWS V14.00,2013-05-06 07:06:00,
2013-05-06 02:11:00,51.9,46.9,30.00,NNW,327,8.0,13.0,83,0.00,,---,0.00,VWS V14.00,2013-05-06 07:11:00,
2013-05-06 02:16:00,51.7,46.7,30.00,NW,317,13.0,14.0,83,0.00,,---,0.00,VWS V14.00,2013-05-06 07:16:00,
2013-05-06 02:21:00,51.7,46.7,30.01,NW,319,11.0,14.0,83,0.00,,---,0.00,VWS V14.00,2013-05-06 07:21:00,
2013-05-06 02:26:00,51.6,46.6,30.01,NNW,330,10.0,13.0,83,0.00,,---,0.00,VWS V14.00,2013-05-06 07:26:00,
2013-05-06 02:31:00,51.7,46.7,30.00,NW,319,8.0,10.0,83,0.00,,---,0.00,VWS V14.00,2013-05-06 07:31:00,
2013-05-06 02:36:00,51.6,46.6,30.00,NW,321,8.0,10.0,83,0.00,,---,0.00,VWS V14.00,2013-05-06 07:36:00,
2013-05-06 02:41:00,51.6,46.6,30.01,NW,319,13.0,13.0,83,0.00,,---,0.00,VWS V14.00,2013-05-06 07:41:00,
2013-05-06 02:46:00,51.4,46.4,30.01,NW,315,9.0,13.0,83,0.00,,---,0.00,VWS V14.00,2013-05-06 07:46:00,
2013-05-06 02:51:00,51.6,46.9,30.01,NW,317,9.0,13.0,84,0.00,,---,0.00,VWS V14.00,2013-05-06 07:51:00,
2013-05-06 02:56:00,51.4,46.7,30.01,NW,315,10.0,11.0,84,0.00,,---,0.00,VWS V14.00,2013-05-06 07:56:00,
2013-05-06 03:01:00,51.6,46.9,30.01,NW,322,12.0,12.0,84,0.00,,---,0.00,VWS V14.00,2013-05-06 08:01:00,
2013-05-06 03:06:00,51.4,46.7,30.01,NNW,330,5.0,9.0,84,0.00,,---,0.00,VWS V14.00,2013-05-06 08:06:00,
2013-05-06 03:11:00,51.4,46.7,30.01,NW,321,10.0,10.0,84,0.00,,---,0.00,VWS V14.00,2013-05-06 08:11:00,
2013-05-06 03:16:00,51.4,46.7,30.01,NNW,328,6.0,12.0,84,0.00,,---,0.00,VWS V14.00,2013-05-06 08:16:00,
2013-05-06 03:21:00,51.3,46.6,30.01,NW,322,10.0,15.0,84,0.00,,---,0.00,VWS V14.00,2013-05-06 08:21:00,
2013-05-06 03:26:00,51.3,47.0,30.01,NW,315,9.0,9.0,85,0.00,,---,0.00,VWS V14.00,2013-05-06 08:26:00,
2013-05-06 03:31:00,51.3,47.0,30.01,NW,323,10.0,10.0,85,0.00,,---,0.00,VWS V14.00,2013-05-06 08:31:00,
2013-05-06 03:36:00,51.3,47.0,30.01,NW,321,4.0,6.0,85,0.00,,---,0.00,VWS V14.00,2013-05-06 08:36:00,
2013-05-06 03:41:00,51.3,47.0,30.01,NW,320,5.0,7.0,85,0.00,,---,0.00,VWS V14.00,2013-05-06 08:41:00,
2013-05-06 03:46:00,51.3,47.0,30.01,NW,317,7.0,8.0,85,0.00,,---,0.00,VWS V14.00,2013-05-06 08:46:00,
2013-05-06 03:51:00,51.1,46.8,30.01,NW,308,7.0,14.0,85,0.00,,---,0.00,VWS V14.00,2013-05-06 08:51:00,
2013-05-06 03:56:00,51.1,47.1,30.01,NNW,344,4.0,6.0,86,0.00,,---,0.00,VWS V14.00,2013-05-06 08:56:00,
2013-05-06 04:01:00,51.1,47.1,30.01,NW,309,10.0,11.0,86,0.00,,---,0.00,VWS V14.00,2013-05-06 09:01:00,
2013-05-06 04:06:00,51.1,47.1,30.01,NNW,338,6.0,9.0,86,0.00,,---,0.00,VWS V14.00,2013-05-06 09:06:00,
2013-05-06 04:11:00,51.1,47.1,30.01,NNW,329,9.0,10.0,86,0.00,,---,0.00,VWS V14.00,2013-05-06 09:11:00,
2013-05-06 04:16:00,51.1,47.1,30.01,NW,309,6.0,10.0,86,0.00,,---,0.00,VWS V14.00,2013-05-06 09:16:00,
2013-05-06 04:21:00,51.0,47.0,30.01,NNW,332,4.0,6.0,86,0.00,,---,0.00,VWS V14.00,2013-05-06 09:21:00,
2013-05-06 04:26:00,51.0,47.0,30.01,NNW,332,2.0,4.0,86,0.00,,---,0.00,VWS V14.00,2013-05-06 09:26:00,
2013-05-06 04:31:00,51.0,47.3,30.01,NNW,327,6.0,10.0,87,0.00,,---,0.00,VWS V14.00,2013-05-06 09:31:00,
2013-05-06 04:36:00,51.0,47.3,30.01,NW,325,8.0,9.0,87,0.00,,---,0.00,VWS V14.00,2013-05-06 09:36:00,
2013-05-06 04:41:00,50.8,47.1,30.01,NW,321,9.0,10.0,87,0.00,,---,0.00,VWS V14.00,2013-05-06 09:41:00,
2013-05-06 04:46:00,50.8,47.1,30.01,NW,326,9.0,10.0,87,0.00,,---,0.00,VWS V14.00,2013-05-06 09:46:00,
2013-05-06 04:51:00,50.5,46.8,30.01,NW,319,7.0,10.0,87,0.00,,---,0.00,VWS V14.00,2013-05-06 09:51:00,
2013-05-06 04:56:00,50.5,46.8,30.01,NW,325,10.0,12.0,87,0.00,,---,0.00,VWS V14.00,2013-05-06 09:56:00,
2013-05-06 05:01:00,50.4,46.7,30.01,NW,318,9.0,10.0,87,0.00,,---,0.00,VWS V14.00,2013-05-06 10:01:00,
2013-05-06 05:06:00,50.4,46.7,30.01,NW,321,9.0,13.0,87,0.00,,---,0.00,VWS V14.00,2013-05-06 10:06:00,
2013-05-06 05:11:00,50.2,46.8,30.01,NW,317,11.0,12.0,88,0.00,,---,0.00,VWS V14.00,2013-05-06 10:11:00,
2013-05-06 05:16:00,50.2,46.8,30.01,NW,311,9.0,10.0,88,0.00,,---,0.00,VWS V14.00,2013-05-06 10:16:00,
2013-05-06 05:21:00,50.2,46.8,30.01,NW,317,4.0,7.0,88,0.00,,---,0.00,VWS V14.00,2013-05-06 10:21:00,
2013-05-06 05:26:00,50.2,46.8,30.01,NW,317,5.0,7.0,88,0.00,,---,0.00,VWS V14.00,2013-05-06 10:26:00,
2013-05-06 05:31:00,50.4,47.3,30.01,NNW,336,5.0,7.0,89,0.00,,---,0.00,VWS V14.00,2013-05-06 10:31:00,
2013-05-06 05:36:00,50.2,46.8,30.01,NW,319,6.0,9.0,88,0.00,,---,0.00,VWS V14.00,2013-05-06 10:36:00,
2013-05-06 05:41:00,50.2,47.1,30.02,NW,321,7.0,12.0,89,0.00,,---,0.00,VWS V14.00,2013-05-06 10:41:00,
2013-05-06 05:46:00,50.1,46.7,30.02,NNW,336,10.0,13.0,88,0.00,,---,0.00,VWS V14.00,2013-05-06 10:46:00,
2013-05-06 05:51:00,50.1,47.0,30.02,NW,315,9.0,11.0,89,0.00,,---,0.00,VWS V14.00,2013-05-06 10:51:00,
2013-05-06 05:56:00,50.1,47.0,30.02,NW,312,4.0,7.0,89,0.00,,---,0.00,VWS V14.00,2013-05-06 10:56:00,
2013-05-06 06:01:00,50.1,47.0,30.02,NW,312,5.0,7.0,89,0.00,,---,0.00,VWS V14.00,2013-05-06 11:01:00,
2013-05-06 06:06:00,49.9,46.8,30.02,NW,312,7.0,7.0,89,0.00,,---,0.00,VWS V14.00,2013-05-06 11:06:00,
2013-05-06 06:11:00,50.1,47.0,30.03,NW,313,5.0,9.0,89,0.00,,---,0.00,VWS V14.00,2013-05-06 11:11:00,
2013-05-06 06:16:00,50.1,47.0,30.03,NW,313,5.0,7.0,89,0.00,,---,0.00,VWS V14.00,2013-05-06 11:16:00,
2013-05-06 06:21:00,50.1,47.0,30.03,NW,313,6.0,6.0,89,0.00,,---,0.00,VWS V14.00,2013-05-06 11:21:00,
2013-05-06 06:26:00,50.1,47.0,30.03,NW,312,6.0,6.0,89,0.00,,---,0.00,VWS V14.00,2013-05-06 11:26:00,
2013-05-06 06:31:00,50.1,47.0,30.04,NW,312,5.0,6.0,89,0.00,,---,0.00,VWS V14.00,2013-05-06 11:31:00,
2013-05-06 06:36:00,50.1,47.0,30.03,NW,312,3.0,5.0,89,0.00,,---,0.00,VWS V14.00,2013-05-06 11:36:00,
2013-05-06 06:41:00,50.1,47.0,30.04,NW,312,4.0,4.0,89,0.00,,---,0.00,VWS V14.00,2013-05-06 11:41:00,
2013-05-06 06:46:00,49.9,46.8,30.04,NW,312,4.0,7.0,89,0.00,,---,0.00,VWS V14.00,2013-05-06 11:46:00,
2013-05-06 06:51:00,50.1,47.0,30.04,NW,312,1.0,3.0,89,0.00,,---,0.00,VWS V14.00,2013-05-06 11:51:00,
2013-05-06 06:56:00,49.9,46.8,30.04,NW,315,7.0,10.0,89,0.00,,---,0.00,VWS V14.00,2013-05-06 11:56:00,
2013-05-06 07:01:00,49.9,47.1,30.04,NW,317,4.0,7.0,90,0.00,,---,0.00,VWS V14.00,2013-05-06 12:01:00,
2013-05-06 07:06:00,50.1,47.3,30.05,NW,317,6.0,9.0,90,0.00,,---,0.00,VWS V14.00,2013-05-06 12:06:00,
2013-05-06 07:11:00,50.1,47.3,30.05,NW,311,6.0,10.0,90,0.00,,---,0.00,VWS V14.00,2013-05-06 12:11:00,
2013-05-06 07:16:00,49.9,47.1,30.05,NW,309,5.0,10.0,90,0.00,,---,0.00,VWS V14.00,2013-05-06 12:16:00,
2013-05-06 07:21:00,49.8,47.0,30.06,NW,311,6.0,9.0,90,0.00,,---,0.00,VWS V14.00,2013-05-06 12:21:00,
2013-05-06 07:26:00,49.9,47.1,30.06,NW,312,5.0,6.0,90,0.00,,---,0.00,VWS V14.00,2013-05-06 12:26:00,
2013-05-06 07:31:00,50.1,47.3,30.06,NW,312,6.0,7.0,90,0.00,,---,0.00,VWS V14.00,2013-05-06 12:31:00,
2013-05-06 07:36:00,49.9,47.4,30.05,NW,312,9.0,9.0,91,0.00,,---,0.00,VWS V14.00,2013-05-06 12:36:00,
2013-05-06 07:40:00,49.9,47.1,30.05,NW,312,1.0,5.0,90,0.00,,---,0.00,VWS V14.00,2013-05-06 12:40:00,
2013-05-06 07:45:00,49.9,47.4,30.06,NW,312,5.0,5.0,91,0.00,,---,0.00,VWS V14.00,2013-05-06 12:45:00,
2013-05-06 07:50:00,49.9,47.4,30.06,NW,312,6.0,7.0,91,0.00,,---,0.00,VWS V14.00,2013-05-06 12:50:00,
2013-05-06 07:55:00,49.9,47.4,30.06,NW,313,8.0,10.0,91,0.00,,---,0.00,VWS V14.00,2013-05-06 12:55:00,
2013-05-06 08:00:00,49.9,47.4,30.06,NW,313,5.0,7.0,91,0.00,,---,0.00,VWS V14.00,2013-05-06 13:00:00,
2013-05-06 08:05:00,50.1,47.6,30.06,NW,313,5.0,6.0,91,0.00,,---,0.00,VWS V14.00,2013-05-06 13:05:00,
2013-05-06 08:10:00,50.2,47.7,30.06,NW,313,6.0,8.0,91,0.00,,---,0.00,VWS V14.00,2013-05-06 13:10:00,
2013-05-06 08:15:00,50.4,47.9,30.06,NW,313,7.0,9.0,91,0.00,,---,0.00,VWS V14.00,2013-05-06 13:15:00,
2013-05-06 08:20:00,50.4,47.6,30.06,NW,313,7.0,9.0,90,0.00,,---,0.00,VWS V14.00,2013-05-06 13:20:00,
2013-05-06 08:25:00,50.5,47.7,30.06,NW,313,11.0,12.0,90,0.00,,---,0.00,VWS V14.00,2013-05-06 13:25:00,
2013-05-06 08:30:00,50.5,47.7,30.06,NW,311,3.0,5.0,90,0.00,,---,0.00,VWS V14.00,2013-05-06 13:30:00,
2013-05-06 08:35:00,50.7,47.9,30.06,NW,313,1.0,4.0,90,0.00,,---,0.00,VWS V14.00,2013-05-06 13:35:00,
2013-05-06 08:40:00,50.7,47.9,30.07,NW,313,5.0,6.0,90,0.00,,---,0.00,VWS V14.00,2013-05-06 13:40:00,
2013-05-06 08:45:00,50.7,47.9,30.07,NW,313,5.0,7.0,90,0.00,,---,0.00,VWS V14.00,2013-05-06 13:45:00,
2013-05-06 08:50:00,50.5,47.7,30.07,NW,323,10.0,10.0,90,0.00,,---,0.00,VWS V14.00,2013-05-06 13:50:00,
2013-05-06 08:55:00,50.5,47.7,30.07,NW,322,8.0,8.0,90,0.00,,---,0.00,VWS V14.00,2013-05-06 13:55:00,
2013-05-06 09:00:00,50.7,47.9,30.08,NW,324,3.0,4.0,90,0.00,,---,0.00,VWS V14.00,2013-05-06 14:00:00,
2013-05-06 09:05:00,50.7,47.9,30.08,NW,324,3.0,4.0,90,0.00,,---,0.00,VWS V14.00,2013-05-06 14:05:00,
2013-05-06 09:10:00,50.8,48.3,30.08,NW,324,5.0,5.0,91,0.00,,---,0.00,VWS V14.00,2013-05-06 14:10:00,
2013-05-06 09:15:00,50.8,48.0,30.08,NW,324,8.0,8.0,90,0.00,,---,0.00,VWS V14.00,2013-05-06 14:15:00,
2013-05-06 09:20:00,50.8,48.3,30.08,NW,324,6.0,7.0,91,0.00,,---,0.00,VWS V14.00,2013-05-06 14:20:00,
2013-05-06 09:25:00,50.7,47.9,30.08,NNW,346,4.0,5.0,90,0.00,,---,0.00,VWS V14.00,2013-05-06 14:25:00,
2013-05-06 09:30:00,50.7,48.2,30.08,NNW,345,3.0,5.0,91,0.00,,---,0.00,VWS V14.00,2013-05-06 14:30:00,
2013-05-06 09:35:00,50.8,48.3,30.08,NNW,339,6.0,7.0,91,0.00,,---,0.00,VWS V14.00,2013-05-06 14:35:00,
2013-05-06 09:40:00,50.8,48.0,30.08,NNW,327,6.0,6.0,90,0.00,,---,0.00,VWS V14.00,2013-05-06 14:40:00,
2013-05-06 09:45:00,51.0,48.5,30.08,NW,326,4.0,6.0,91,0.00,,---,0.00,VWS V14.00,2013-05-06 14:45:00,
2013-05-06 09:50:00,51.0,48.2,30.08,NW,326,0.0,1.0,90,0.00,,---,0.00,VWS V14.00,2013-05-06 14:50:00,
2013-05-06 09:55:00,51.1,48.3,30.08,NW,326,4.0,5.0,90,0.00,,---,0.00,VWS V14.00,2013-05-06 14:55:00,
2013-05-06 10:00:00,51.1,48.3,30.08,NW,323,4.0,5.0,90,0.00,,---,0.00,VWS V14.00,2013-05-06 15:00:00,
2013-05-06 10:05:00,51.3,48.5,30.08,NW,322,4.0,4.0,90,0.00,,---,0.00,VWS V14.00,2013-05-06 15:05:00,
2013-05-06 10:10:00,51.4,48.6,30.08,NW,322,2.0,4.0,90,0.00,,---,0.00,VWS V14.00,2013-05-06 15:10:00,
2013-05-06 10:15:00,51.7,48.9,30.08,NW,321,2.0,5.0,90,0.00,,---,0.00,VWS V14.00,2013-05-06 15:15:00,
2013-05-06 10:20:00,52.0,49.2,30.08,NW,321,7.0,7.0,90,0.00,,---,0.00,VWS V14.00,2013-05-06 15:20:00,
2013-05-06 10:25:00,52.0,48.9,30.08,NW,320,4.0,9.0,89,0.00,,---,0.00,VWS V14.00,2013-05-06 15:25:00,
2013-05-06 10:30:00,52.2,49.1,30.09,NW,321,6.0,6.0,89,0.00,,---,0.00,VWS V14.00,2013-05-06 15:30:00,
2013-05-06 10:35:00,52.3,49.2,30.09,NW,323,10.0,10.0,89,0.00,,---,0.00,VWS V14.00,2013-05-06 15:35:00,
2013-05-06 10:40:00,52.5,49.4,30.09,NNW,333,11.0,11.0,89,0.00,,---,0.00,VWS V14.00,2013-05-06 15:40:00,
2013-05-06 10:45:00,52.6,49.5,30.09,NNW,333,7.0,9.0,89,0.00,,---,0.00,VWS V14.00,2013-05-06 15:45:00,
2013-05-06 10:50:00,52.8,49.7,30.09,NNW,333,6.0,6.0,89,0.00,,---,0.00,VWS V14.00,2013-05-06 15:50:00,
2013-05-06 10:55:00,52.9,49.5,30.09,NNW,333,6.0,7.0,88,0.00,,---,0.00,VWS V14.00,2013-05-06 15:55:00,
2013-05-06 11:00:00,52.9,49.5,30.09,NNW,333,5.0,7.0,88,0.00,,---,0.00,VWS V14.00,2013-05-06 16:00:00,
2013-05-06 11:05:00,53.1,49.7,30.09,NNW,333,8.0,8.0,88,0.00,,---,0.00,VWS V14.00,2013-05-06 16:05:00,
2013-05-06 11:10:00,53.2,49.7,30.09,NNW,331,5.0,6.0,88,0.00,,---,0.00,VWS V14.00,2013-05-06 16:10:00,
2013-05-06 11:15:00,53.3,49.8,30.09,NNW,331,6.0,7.0,88,0.00,,---,0.00,VWS V14.00,2013-05-06 16:15:00,
2013-05-06 11:20:00,53.5,50.0,30.09,NNW,329,5.0,6.0,88,0.00,,---,0.00,VWS V14.00,2013-05-06 16:20:00,
2013-05-06 11:25:00,53.8,50.3,30.09,NNW,330,7.0,7.0,88,0.00,,---,0.00,VWS V14.00,2013-05-06 16:25:00,
2013-05-06 11:30:00,53.8,50.0,30.09,NNW,330,5.0,6.0,87,0.00,,---,0.00,VWS V14.00,2013-05-06 16:30:00,
2013-05-06 11:35:00,53.9,50.1,30.09,NNW,329,3.0,4.0,87,0.00,,---,0.00,VWS V14.00,2013-05-06 16:35:00,
2013-05-06 11:40:00,54.2,50.4,30.09,NNW,329,5.0,6.0,87,0.00,,---,0.00,VWS V14.00,2013-05-06 16:40:00,
2013-05-06 11:45:00,54.4,50.6,30.09,NNW,327,3.0,4.0,87,0.00,,---,0.00,VWS V14.00,2013-05-06 16:45:00,
2013-05-06 11:50:00,54.5,50.4,30.08,NW,321,11.0,11.0,86,0.00,,---,0.00,VWS V14.00,2013-05-06 16:50:00,
2013-05-06 11:55:00,54.7,50.6,30.08,NW,319,5.0,7.0,86,0.00,,---,0.00,VWS V14.00,2013-05-06 16:55:00,
2013-05-06 12:00:00,54.8,50.7,30.08,NW,319,10.0,11.0,86,0.00,,---,0.00,VWS V14.00,2013-05-06 17:00:00,
2013-05-06 12:05:00,55.0,50.6,30.08,NW,320,8.0,8.0,85,0.00,,---,0.00,VWS V14.00,2013-05-06 17:05:00,
2013-05-06 12:10:00,55.1,50.7,30.08,NW,321,7.0,8.0,85,0.00,,---,0.00,VWS V14.00,2013-05-06 17:10:00,
2013-05-06 12:15:00,55.1,50.4,30.08,NNW,329,6.0,9.0,84,0.00,,---,0.00,VWS V14.00,2013-05-06 17:15:00,
2013-05-06 12:20:00,55.3,50.6,30.07,NNW,329,7.0,9.0,84,0.00,,---,0.00,VWS V14.00,2013-05-06 17:20:00,
2013-05-06 12:25:00,55.6,50.8,30.07,NNW,338,5.0,5.0,84,0.00,,---,0.00,VWS V14.00,2013-05-06 17:25:00,
2013-05-06 12:30:00,55.7,51.0,30.07,NNW,348,7.0,10.0,84,0.00,,---,0.00,VWS V14.00,2013-05-06 17:30:00,
2013-05-06 12:35:00,55.7,50.6,30.07,NNW,344,4.0,5.0,83,0.00,,---,0.00,VWS V14.00,2013-05-06 17:35:00,
2013-05-06 12:40:00,56.0,50.9,30.07,NNW,339,7.0,7.0,83,0.00,,---,0.00,VWS V14.00,2013-05-06 17:40:00,
2013-05-06 12:45:00,56.2,50.8,30.07,NW,321,7.0,9.0,82,0.00,,---,0.00,VWS V14.00,2013-05-06 17:45:00,
2013-05-06 12:50:00,56.5,51.1,30.06,NW,316,3.0,3.0,82,0.00,,---,0.00,VWS V14.00,2013-05-06 17:50:00,
2013-05-06 12:55:00,57.0,51.2,30.05,NW,316,8.0,9.0,81,0.00,,---,0.00,VWS V14.00,2013-05-06 17:55:00,
2013-05-06 13:00:00,57.0,51.2,30.06,NW,316,1.0,4.0,81,0.00,,---,0.00,VWS V14.00,2013-05-06 18:00:00,
2013-05-06 13:05:00,57.2,51.4,30.06,NW,318,6.0,6.0,81,0.00,,---,0.00,VWS V14.00,2013-05-06 18:05:00,
2013-05-06 13:10:00,57.2,51.1,30.06,NW,319,8.0,9.0,80,0.00,,---,0.00,VWS V14.00,2013-05-06 18:10:00,
2013-05-06 13:15:00,57.2,51.1,30.06,NW,320,2.0,2.0,80,0.00,,---,0.00,VWS V14.00,2013-05-06 18:15:00,
2013-05-06 13:20:00,57.2,51.1,30.06,NW,323,3.0,5.0,80,0.00,,---,0.00,VWS V14.00,2013-05-06 18:20:00,
2013-05-06 13:25:00,57.3,51.2,30.06,NW,307,12.0,14.0,80,0.00,,---,0.00,VWS V14.00,2013-05-06 18:25:00,
2013-05-06 13:30:00,57.5,51.0,30.06,NNW,333,5.0,6.0,79,0.00,,---,0.00,VWS V14.00,2013-05-06 18:30:00,
2013-05-06 13:35:00,57.8,51.3,30.06,NNW,333,2.0,5.0,79,0.00,,---,0.00,VWS V14.00,2013-05-06 18:35:00,
2013-05-06 13:40:00,58.0,51.5,30.05,NNW,329,7.0,7.0,79,0.00,,---,0.00,VWS V14.00,2013-05-06 18:40:00,
2013-05-06 13:45:00,58.1,51.6,30.06,NNW,329,5.0,6.0,79,0.00,,---,0.00,VWS V14.00,2013-05-06 18:45:00,
2013-05-06 13:50:00,58.3,51.8,30.05,NNE,12,7.0,9.0,79,0.00,,---,0.00,VWS V14.00,2013-05-06 18:50:00,
2013-05-06 13:55:00,58.4,51.6,30.05,NNW,331,10.0,11.0,78,0.00,,---,0.00,VWS V14.00,2013-05-06 18:55:00,
2013-05-06 14:00:00,58.6,51.4,30.05,NNW,332,11.0,11.0,77,0.00,,---,0.00,VWS V14.00,2013-05-06 19:00:00,
2013-05-06 14:05:00,58.7,51.5,30.05,North,350,10.0,10.0,77,0.00,,---,0.00,VWS V14.00,2013-05-06 19:05:00,
2013-05-06 14:10:00,58.6,51.1,30.05,NW,325,7.0,10.0,76,0.00,,---,0.00,VWS V14.00,2013-05-06 19:10:00,
2013-05-06 14:15:00,58.4,50.9,30.05,NNW,346,7.0,10.0,76,0.00,,---,0.00,VWS V14.00,2013-05-06 19:15:00,
2013-05-06 14:20:00,58.6,51.1,30.05,NW,325,5.0,5.0,76,0.00,,---,0.00,VWS V14.00,2013-05-06 19:20:00,
2013-05-06 14:25:00,58.9,51.0,30.05,NNW,329,10.0,10.0,75,0.00,,---,0.00,VWS V14.00,2013-05-06 19:25:00,
2013-05-06 14:30:00,59.0,51.1,30.05,NW,321,1.0,1.0,75,0.00,,---,0.00,VWS V14.00,2013-05-06 19:30:00,
2013-05-06 14:35:00,59.2,51.3,30.05,NW,320,6.0,6.0,75,0.00,,---,0.00,VWS V14.00,2013-05-06 19:35:00,
2013-05-06 14:40:00,59.3,51.4,30.05,NW,321,6.0,6.0,75,0.00,,---,0.00,VWS V14.00,2013-05-06 19:40:00,
2013-05-06 14:45:00,59.5,51.6,30.05,NNW,344,9.0,9.0,75,0.00,,---,0.00,VWS V14.00,2013-05-06 19:45:00,
2013-05-06 14:50:00,59.5,51.2,30.04,NNW,335,6.0,8.0,74,0.00,,---,0.00,VWS V14.00,2013-05-06 19:50:00,
2013-05-06 14:55:00,59.5,51.2,30.04,NNW,340,5.0,11.0,74,0.00,,---,0.00,VWS V14.00,2013-05-06 19:55:00,
2013-05-06 15:00:00,59.8,51.1,30.04,NW,314,6.0,10.0,73,0.00,,---,0.00,VWS V14.00,2013-05-06 20:00:00,
2013-05-06 15:05:00,59.9,51.2,30.04,NNW,338,10.0,11.0,73,0.00,,---,0.00,VWS V14.00,2013-05-06 20:05:00,
2013-05-06 15:10:00,59.8,51.5,30.03,NNW,344,8.0,10.0,74,0.00,,---,0.00,VWS V14.00,2013-05-06 20:10:00,
2013-05-06 15:15:00,59.8,51.5,30.03,NNW,341,7.0,12.0,74,0.00,,---,0.00,VWS V14.00,2013-05-06 20:15:00,
2013-05-06 15:20:00,59.9,51.2,30.03,NNW,338,9.0,12.0,73,0.00,,---,0.00,VWS V14.00,2013-05-06 20:20:00,
2013-05-06 15:25:00,59.9,51.2,30.03,NNW,333,6.0,9.0,73,0.00,,---,0.00,VWS V14.00,2013-05-06 20:25:00,
2013-05-06 15:30:00,59.9,51.2,30.03,NNW,337,13.0,13.0,73,0.00,,---,0.00,VWS V14.00,2013-05-06 20:30:00,
2013-05-06 15:35:00,59.8,51.1,30.03,NW,326,6.0,6.0,73,0.00,,---,0.00,VWS V14.00,2013-05-06 20:35:00,
2013-05-06 15:40:00,60.4,51.3,30.03,NW,317,12.0,13.0,72,0.00,,---,0.00,VWS V14.00,2013-05-06 20:40:00,
2013-05-06 15:45:00,60.5,51.1,30.02,NW,321,10.0,11.0,71,0.00,,---,0.00,VWS V14.00,2013-05-06 20:45:00,
2013-05-06 15:50:00,60.5,50.3,30.02,NW,326,4.0,4.0,69,0.00,,---,0.00,VWS V14.00,2013-05-06 20:50:00,
2013-05-06 15:55:00,60.7,50.9,30.02,NW,315,3.0,11.0,70,0.00,,---,0.00,VWS V14.00,2013-05-06 20:55:00,
2013-05-06 16:00:00,61.0,50.8,30.02,NW,312,10.0,10.0,69,0.00,,---,0.00,VWS V14.00,2013-05-06 21:00:00,
2013-05-06 16:05:00,61.2,51.0,30.02,North,355,7.0,11.0,69,0.00,,---,0.00,VWS V14.00,2013-05-06 21:05:00,
2013-05-06 16:10:00,61.3,50.7,30.02,NNW,342,8.0,12.0,68,0.00,,---,0.00,VWS V14.00,2013-05-06 21:10:00,
2013-05-06 16:15:00,61.2,50.6,30.02,NW,315,9.0,9.0,68,0.00,,---,0.00,VWS V14.00,2013-05-06 21:15:00,
2013-05-06 16:20:00,61.3,50.7,30.01,NW,314,11.0,13.0,68,0.00,,---,0.00,VWS V14.00,2013-05-06 21:20:00,
2013-05-06 16:25:00,61.2,50.6,30.02,NNW,327,8.0,11.0,68,0.00,,---,0.00,VWS V14.00,2013-05-06 21:25:00,
2013-05-06 16:30:00,61.2,50.6,30.01,NNW,327,5.0,6.0,68,0.00,,---,0.00,VWS V14.00,2013-05-06 21:30:00,
2013-05-06 16:35:00,61.3,50.7,30.01,NW,321,11.0,11.0,68,0.00,,---,0.00,VWS V14.00,2013-05-06 21:35:00,
2013-05-06 16:40:00,61.5,50.8,30.01,NW,315,5.0,9.0,68,0.00,,---,0.00,VWS V14.00,2013-05-06 21:40:00,
2013-05-06 16:45:00,61.3,50.3,30.01,NW,307,8.0,9.0,67,0.00,,---,0.00,VWS V14.00,2013-05-06 21:45:00,
2013-05-06 16:50:00,61.5,50.5,30.01,NW,318,9.0,9.0,67,0.00,,---,0.00,VWS V14.00,2013-05-06 21:50:00,
2013-05-06 16:55:00,61.5,50.8,30.01,NNW,331,7.0,14.0,68,0.00,,---,0.00,VWS V14.00,2013-05-06 21:55:00,
2013-05-06 17:00:00,61.6,51.0,30.01,NNW,330,3.0,10.0,68,0.00,,---,0.00,VWS V14.00,2013-05-06 22:00:00,
2013-05-06 17:05:00,61.6,50.5,30.01,NW,321,7.0,12.0,67,0.00,,---,0.00,VWS V14.00,2013-05-06 22:05:00,
2013-05-06 17:10:00,61.6,50.5,30.01,NNW,342,7.0,11.0,67,0.00,,---,0.00,VWS V14.00,2013-05-06 22:10:00,
2013-05-06 17:15:00,61.6,51.0,30.01,NNW,344,11.0,12.0,68,0.00,,---,0.00,VWS V14.00,2013-05-06 22:15:00,
2013-05-06 17:20:00,61.5,50.8,30.01,NNW,332,5.0,8.0,68,0.00,,---,0.00,VWS V14.00,2013-05-06 22:20:00,
2013-05-06 17:25:00,61.6,51.0,30.01,NW,325,5.0,9.0,68,0.00,,---,0.00,VWS V14.00,2013-05-06 22:25:00,
2013-05-06 17:30:00,61.6,50.5,30.01,NW,311,9.0,13.0,67,0.00,,---,0.00,VWS V14.00,2013-05-06 22:30:00,
2013-05-06 17:35:00,61.8,50.7,30.01,NNW,333,10.0,12.0,67,0.00,,---,0.00,VWS V14.00,2013-05-06 22:35:00,
2013-05-06 17:40:00,61.6,50.1,30.01,NNW,338,2.0,7.0,66,0.00,,---,0.00,VWS V14.00,2013-05-06 22:40:00,
2013-05-06 17:45:00,61.6,50.1,30.01,NW,309,8.0,8.0,66,0.00,,---,0.00,VWS V14.00,2013-05-06 22:45:00,
2013-05-06 17:50:00,61.8,50.3,30.01,NNW,338,12.0,12.0,66,0.00,,---,0.00,VWS V14.00,2013-05-06 22:50:00,
2013-05-06 17:55:00,61.8,50.3,30.01,North,350,9.0,10.0,66,0.00,,---,0.00,VWS V14.00,2013-05-06 22:55:00,
2013-05-06 18:00:00,61.8,50.3,30.01,NNW,339,9.0,10.0,66,0.00,,---,0.00,VWS V14.00,2013-05-06 23:00:00,
2013-05-06 18:05:00,61.6,50.5,30.01,NNE,13,9.0,11.0,67,0.00,,---,0.00,VWS V14.00,2013-05-06 23:05:00,
2013-05-06 18:10:00,61.5,50.5,30.01,North,350,7.0,10.0,67,0.00,,---,0.00,VWS V14.00,2013-05-06 23:10:00,
2013-05-06 18:15:00,61.5,50.8,30.01,North,355,4.0,7.0,68,0.00,,---,0.00,VWS V14.00,2013-05-06 23:15:00,
2013-05-06 18:20:00,61.6,51.0,30.01,NNE,21,4.0,9.0,68,0.00,,---,0.00,VWS V14.00,2013-05-06 23:20:00,
2013-05-06 18:25:00,61.6,50.5,30.00,NNW,335,9.0,9.0,67,0.00,,---,0.00,VWS V14.00,2013-05-06 23:25:00,
2013-05-06 18:30:00,61.5,50.8,30.00,NNW,329,7.0,9.0,68,0.00,,---,0.00,VWS V14.00,2013-05-06 23:30:00,
2013-05-06 18:35:00,61.5,50.8,30.00,NNW,344,11.0,11.0,68,0.00,,---,0.00,VWS V14.00,2013-05-06 23:35:00,
2013-05-06 18:40:00,61.3,50.3,30.01,NNW,333,7.0,11.0,67,0.00,,---,0.00,VWS V14.00,2013-05-06 23:40:00,
2013-05-06 18:45:00,61.2,50.6,30.01,NNW,334,4.0,7.0,68,0.00,,---,0.00,VWS V14.00,2013-05-06 23:45:00,
2013-05-06 18:50:00,61.2,50.6,30.00,NNW,332,3.0,6.0,68,0.00,,---,0.00,VWS V14.00,2013-05-06 23:50:00,
2013-05-06 18:55:00,61.0,50.4,30.01,NNW,330,5.0,10.0,68,0.00,,---,0.00,VWS V14.00,2013-05-06 23:55:00,
2013-05-06 19:00:00,61.0,50.4,30.00,NNW,329,4.0,6.0,68,0.00,,---,0.00,VWS V14.00,2013-05-07 00:00:00,
2013-05-06 19:05:00,60.9,50.3,30.00,NNW,329,5.0,6.0,68,0.00,,---,0.00,VWS V14.00,2013-05-07 00:05:00,
2013-05-06 19:10:00,60.9,50.3,30.00,NNW,329,7.0,7.0,68,0.00,,---,0.00,VWS V14.00,2013-05-07 00:10:00,
2013-05-06 19:15:00,60.7,50.1,30.01,NNW,329,5.0,5.0,68,0.00,,---,0.00,VWS V14.00,2013-05-07 00:15:00,
2013-05-06 19:20:00,60.7,50.5,30.01,NNW,329,5.0,7.0,69,0.00,,---,0.00,VWS V14.00,2013-05-07 00:20:00,
2013-05-06 19:25:00,60.5,50.3,30.01,NNW,329,3.0,6.0,69,0.00,,---,0.00,VWS V14.00,2013-05-07 00:25:00,
2013-05-06 19:30:00,60.5,50.3,30.01,NE,45,3.0,5.0,69,0.00,,---,0.00,VWS V14.00,2013-05-07 00:30:00,
2013-05-06 19:35:00,60.4,50.2,30.01,NW,322,5.0,5.0,69,0.00,,---,0.00,VWS V14.00,2013-05-07 00:35:00,
2013-05-06 19:40:00,60.2,50.4,30.01,NW,322,2.0,4.0,70,0.00,,---,0.00,VWS V14.00,2013-05-07 00:40:00,
2013-05-06 19:45:00,60.1,50.7,30.01,NW,322,0.0,2.0,71,0.00,,---,0.00,VWS V14.00,2013-05-07 00:45:00,
2013-05-06 19:50:00,59.9,50.5,30.02,NW,322,0.0,0.0,71,0.00,,---,0.00,VWS V14.00,2013-05-07 00:50:00,
2013-05-06 19:55:00,59.5,50.1,30.02,NW,322,0.0,0.0,71,0.00,,---,0.00,VWS V14.00,2013-05-07 00:55:00,
2013-05-06 20:00:00,59.2,50.2,30.02,NW,322,0.0,0.0,72,0.00,,---,0.00,VWS V14.00,2013-05-07 01:00:00,
2013-05-06 20:05:00,58.9,50.3,30.02,NW,322,0.0,0.0,73,0.00,,---,0.00,VWS V14.00,2013-05-07 01:05:00,
2013-05-06 20:10:00,58.6,50.3,30.02,NW,322,0.0,0.0,74,0.00,,---,0.00,VWS V14.00,2013-05-07 01:10:00,
2013-05-06 20:15:00,58.1,50.2,30.03,NW,322,0.0,0.0,75,0.00,,---,0.00,VWS V14.00,2013-05-07 01:15:00,
2013-05-06 20:20:00,57.6,50.5,30.03,NW,322,0.0,0.0,77,0.00,,---,0.00,VWS V14.00,2013-05-07 01:20:00,
2013-05-06 20:25:00,57.2,50.1,30.03,NW,322,0.0,0.0,77,0.00,,---,0.00,VWS V14.00,2013-05-07 01:25:00,
2013-05-06 20:30:00,56.7,49.9,30.03,NW,322,0.0,0.0,78,0.00,,---,0.00,VWS V14.00,2013-05-07 01:30:00,
2013-05-06 20:35:00,56.3,49.5,30.04,NW,322,0.0,0.0,78,0.00,,---,0.00,VWS V14.00,2013-05-07 01:35:00,
2013-05-06 20:40:00,56.0,49.6,30.04,NW,322,0.0,0.0,79,0.00,,---,0.00,VWS V14.00,2013-05-07 01:40:00,
2013-05-06 20:45:00,55.7,49.6,30.04,NW,322,0.0,0.0,80,0.00,,---,0.00,VWS V14.00,2013-05-07 01:45:00,
2013-05-06 20:50:00,55.4,49.7,30.04,NW,322,0.0,0.0,81,0.00,,---,0.00,VWS V14.00,2013-05-07 01:50:00,
2013-05-06 20:54:00,55.1,49.4,30.04,NW,322,0.0,0.0,81,0.00,,---,0.00,VWS V14.00,2013-05-07 01:54:00,
2013-05-06 20:59:00,54.8,49.4,30.05,NW,322,0.0,0.0,82,0.00,,---,0.00,VWS V14.00,2013-05-07 01:59:00,
2013-05-06 21:04:00,54.5,49.1,30.05,NW,322,0.0,0.0,82,0.00,,---,0.00,VWS V14.00,2013-05-07 02:04:00,
2013-05-06 21:09:00,54.1,49.1,30.06,NW,322,0.0,0.0,83,0.00,,---,0.00,VWS V14.00,2013-05-07 02:09:00,
2013-05-06 21:14:00,53.9,49.2,30.06,NW,322,0.0,0.0,84,0.00,,---,0.00,VWS V14.00,2013-05-07 02:14:00,
2013-05-06 21:19:00,53.5,48.8,30.06,NW,322,0.0,0.0,84,0.00,,---,0.00,VWS V14.00,2013-05-07 02:19:00,
2013-05-06 21:24:00,53.2,48.5,30.06,NW,322,0.0,0.0,84,0.00,,---,0.00,VWS V14.00,2013-05-07 02:24:00,
2013-05-06 21:29:00,52.8,48.4,30.07,NW,322,0.0,0.0,85,0.00,,---,0.00,VWS V14.00,2013-05-07 02:29:00,
2013-05-06 21:34:00,52.8,48.4,30.07,NW,322,0.0,0.0,85,0.00,,---,0.00,VWS V14.00,2013-05-07 02:34:00,
2013-05-06 21:39:00,52.8,48.7,30.08,NW,322,0.0,0.0,86,0.00,,---,0.00,VWS V14.00,2013-05-07 02:39:00,
2013-05-06 21:44:00,52.6,48.5,30.08,NW,322,0.0,0.0,86,0.00,,---,0.00,VWS V14.00,2013-05-07 02:44:00,
2013-05-06 21:49:00,52.5,48.4,30.08,NW,322,0.0,0.0,86,0.00,,---,0.00,VWS V14.00,2013-05-07 02:49:00,
2013-05-06 21:54:00,52.2,48.2,30.08,NW,322,0.0,0.0,86,0.00,,---,0.00,VWS V14.00,2013-05-07 02:54:00,
2013-05-06 21:59:00,52.0,48.3,30.08,NW,322,0.0,0.0,87,0.00,,---,0.00,VWS V14.00,2013-05-07 02:59:00,
2013-05-06 22:04:00,52.0,48.3,30.09,NW,322,0.0,0.0,87,0.00,,---,0.00,VWS V14.00,2013-05-07 03:04:00,
2013-05-06 22:09:00,51.9,48.2,30.09,NW,322,0.0,0.0,87,0.00,,---,0.00,VWS V14.00,2013-05-07 03:09:00,
2013-05-06 22:14:00,51.7,48.3,30.09,NW,322,0.0,0.0,88,0.00,,---,0.00,VWS V14.00,2013-05-07 03:14:00,
2013-05-06 22:19:00,51.7,48.3,30.09,NW,322,0.0,0.0,88,0.00,,---,0.00,VWS V14.00,2013-05-07 03:19:00,
2013-05-06 22:24:00,51.6,48.2,30.09,NW,322,0.0,0.0,88,0.00,,---,0.00,VWS V14.00,2013-05-07 03:24:00,
2013-05-06 22:29:00,51.4,48.0,30.09,NW,322,0.0,0.0,88,0.00,,---,0.00,VWS V14.00,2013-05-07 03:29:00,
2013-05-06 22:34:00,51.3,48.2,30.09,NW,322,0.0,0.0,89,0.00,,---,0.00,VWS V14.00,2013-05-07 03:34:00,
2013-05-06 22:39:00,51.1,48.0,30.09,NW,322,0.0,0.0,89,0.00,,---,0.00,VWS V14.00,2013-05-07 03:39:00,
2013-05-06 22:44:00,51.0,47.9,30.09,NW,322,0.0,0.0,89,0.00,,---,0.00,VWS V14.00,2013-05-07 03:44:00,
2013-05-06 22:49:00,50.8,47.7,30.09,NW,322,0.0,0.0,89,0.00,,---,0.00,VWS V14.00,2013-05-07 03:49:00,
2013-05-06 22:54:00,50.7,47.6,30.09,NW,322,0.0,0.0,89,0.00,,---,0.00,VWS V14.00,2013-05-07 03:54:00,
2013-05-06 22:59:00,50.7,47.9,30.09,NW,322,0.0,0.0,90,0.00,,---,0.00,VWS V14.00,2013-05-07 03:59:00,
2013-05-06 23:01:00,50.7,47.9,30.09,NW,322,0.0,0.0,90,0.00,,---,0.00,VWS V14.00,2013-05-07 04:01:00,
2013-05-06 23:06:00,50.4,47.6,30.08,NW,322,0.0,0.0,90,0.00,,---,0.00,VWS V14.00,2013-05-07 04:06:00,
2013-05-06 23:11:00,50.2,47.4,30.08,NW,322,0.0,0.0,90,0.00,,---,0.00,VWS V14.00,2013-05-07 04:11:00,
2013-05-06 23:16:00,50.1,47.3,30.08,NW,322,0.0,0.0,90,0.00,,---,0.00,VWS V14.00,2013-05-07 04:16:00,
2013-05-06 23:21:00,49.9,47.1,30.08,NW,322,0.0,0.0,90,0.00,,---,0.00,VWS V14.00,2013-05-07 04:21:00,
2013-05-06 23:26:00,49.8,47.0,30.08,NW,322,0.0,0.0,90,0.00,,---,0.00,VWS V14.00,2013-05-07 04:26:00,
2013-05-06 23:31:00,49.6,46.8,30.08,NW,322,0.0,0.0,90,0.00,,---,0.00,VWS V14.00,2013-05-07 04:31:00,
2013-05-06 23:36:00,49.6,46.8,30.08,NW,322,0.0,0.0,90,0.00,,---,0.00,VWS V14.00,2013-05-07 04:36:00,
2013-05-06 23:41:00,49.5,46.7,30.08,NW,322,0.0,0.0,90,0.00,,---,0.00,VWS V14.00,2013-05-07 04:41:00,
2013-05-06 23:46:00,49.4,46.9,30.08,NW,322,0.0,0.0,91,0.00,,---,0.00,VWS V14.00,2013-05-07 04:46:00,
2013-05-06 23:51:00,49.2,46.7,30.08,NW,322,0.0,0.0,91,0.00,,---,0.00,VWS V14.00,2013-05-07 04:51:00,
2013-05-06 23:56:00,49.2,46.7,30.08,NW,322,0.0,0.0,91,0.00,,---,0.00,VWS V14.00,2013-05-07 04:56:00,